Time;durP1;ratioP1;P1;durP2;ratioP2;P2;SDS_P1;SDS_P2;PMS_P1;PMS_P2;Temp;Humidity;BMP_temperature;BMP_pressure;BME280_temperature;BME280_humidity;BME280_pressure;Samples;Min_cycle;Max_cycle;Signal;HPM_P1;HPM_P2
2022/10/03 00:01:16;;;;;;;1999.90;999.90;;;11.80;99.90;;;;;;6650456;88;20184;-78
2022/10/03 00:11:38;;;;;;;1999.90;999.90;;;11.60;99.90;;;;;;6652390;89;20241;-78
2022/10/03 00:21:54;;;;;;;1999.90;999.90;;;11.50;99.90;;;;;;6656428;89;20213;-79
2022/10/03 00:32:21;;;;;;;1999.90;999.90;;;11.40;99.90;;;;;;6653214;89;20197;-77
2022/10/03 00:42:51;;;;;;;1999.90;999.90;;;11.30;99.90;;;;;;6653014;89;20223;-78
2022/10/03 00:53:16;;;;;;;1999.90;999.90;;;11.30;99.90;;;;;;6655600;89;20367;-79
2022/10/03 01:03:40;;;;;;;1999.90;999.90;;;11.20;99.90;;;;;;6650277;89;20283;-77
2022/10/03 01:14:16;;;;;;;1999.90;999.90;;;11.10;99.90;;;;;;6658855;89;20640;-78
2022/10/03 01:24:42;;;;;;;1999.90;999.90;;;11.00;99.90;;;;;;6657332;89;20204;-79
2022/10/03 01:35:01;;;;;;;1999.90;999.90;;;11.00;99.90;;;;;;6654528;89;20192;-78
2022/10/03 01:45:24;;;;;;;1999.90;999.90;;;10.90;99.90;;;;;;6633829;89;20237;-78
2022/10/03 01:55:31;;;;;;;1999.90;999.90;;;10.70;99.90;;;;;;6638769;89;20188;-79
2022/10/03 02:05:47;;;;;;;1999.90;999.90;;;10.50;99.90;;;;;;6646616;89;20213;-79
2022/10/03 02:16:21;;;;;;;1999.90;999.90;;;10.40;99.90;;;;;;6644360;89;20337;-78
2022/10/03 02:26:49;;;;;;;1999.90;999.90;;;10.40;99.90;;;;;;6635609;89;20701;-78
2022/10/03 02:37:13;;;;;;;1999.90;999.90;;;10.40;99.90;;;;;;6640758;89;20189;-78
2022/10/03 02:47:49;;;;;;;1999.90;999.90;;;10.50;99.90;;;;;;6648565;88;21006;-78
2022/10/03 02:58:39;;;;;;;1999.90;999.90;;;10.60;99.90;;;;;;6674947;78;20211;-77
2022/10/03 03:09:01;;;;;;;1999.90;999.90;;;10.70;99.90;;;;;;6647825;88;20699;-78
2022/10/03 03:19:23;;;;;;;1999.90;999.90;;;10.80;99.90;;;;;;6639923;88;20208;-78
2022/10/03 03:29:23;;;;;;;1999.90;999.90;;;10.90;99.90;;;;;;6636626;88;20198;-78
2022/10/03 03:39:41;;;;;;;1999.90;999.90;;;11.00;99.90;;;;;;6636938;88;20709;-79
2022/10/03 03:50:19;;;;;;;1999.90;999.90;;;10.90;99.90;;;;;;6635169;89;20205;-78
2022/10/03 04:00:37;;;;;;;1999.90;999.90;;;10.80;99.90;;;;;;6621176;89;20181;-78
2022/10/03 04:11:04;;;;;;;1999.90;999.90;;;10.80;99.90;;;;;;6632556;88;20567;-79
2022/10/03 04:21:14;;;;;;;1999.90;999.90;;;10.80;99.90;;;;;;6628975;88;20250;-78
2022/10/03 04:31:40;;;;;;;1999.90;999.90;;;11.00;99.90;;;;;;6632425;88;21016;-78
2022/10/03 04:42:00;;;;;;;1999.90;999.90;;;10.90;99.90;;;;;;6627521;88;20193;-77
2022/10/03 04:52:05;;;;;;;1999.90;999.90;;;10.80;99.90;;;;;;6632958;88;20324;-78
2022/10/03 05:02:53;;;;;;;1999.90;999.90;;;10.70;99.90;;;;;;6637844;88;20185;-76
2022/10/03 05:13:11;;;;;;;1999.90;999.90;;;10.70;99.90;;;;;;6635241;88;20501;-78
2022/10/03 05:23:42;;;;;;;1999.90;999.90;;;10.60;99.90;;;;;;6635152;88;20192;-79
2022/10/03 05:33:52;;;;;;;1999.90;999.90;;;10.70;99.90;;;;;;6633455;88;20253;-78
2022/10/03 05:44:17;;;;;;;1999.90;999.90;;;10.70;99.90;;;;;;6637758;88;20348;-76
2022/10/03 05:54:44;;;;;;;1999.90;999.90;;;10.70;99.90;;;;;;6642409;88;20203;-79
2022/10/03 06:05:06;;;;;;;1999.90;999.90;;;10.50;99.90;;;;;;6637866;88;20186;-78
2022/10/03 06:15:42;;;;;;;1999.90;999.90;;;10.50;99.90;;;;;;6635206;88;20178;-79
2022/10/03 06:25:54;;;;;;;1999.90;999.90;;;10.60;99.90;;;;;;6636887;88;20227;-77
2022/10/03 06:36:28;;;;;;;1999.90;999.90;;;10.70;99.90;;;;;;6647875;88;20276;-77
2022/10/03 06:46:48;;;;;;;1999.90;999.90;;;10.80;99.90;;;;;;6642010;88;20226;-79
2022/10/03 06:57:18;;;;;;;1999.90;999.90;;;11.10;99.90;;;;;;6632583;88;20599;-78
2022/10/03 07:07:42;;;;;;;1999.90;999.90;;;11.40;99.90;;;;;;6638483;88;20638;-78
2022/10/03 07:18:10;;;;;;;1999.90;999.90;;;12.00;99.90;;;;;;6637212;88;20209;-78
2022/10/03 07:28:47;;;;;;;1999.90;999.90;;;12.60;99.90;;;;;;6631472;88;20181;-77
2022/10/03 07:39:18;;;;;;;1999.90;999.90;;;13.10;99.90;;;;;;6633422;88;21073;-78
2022/10/03 07:50:02;;;;;;;1999.90;999.90;;;13.80;99.90;;;;;;6646849;88;20209;-78
2022/10/03 08:00:15;;;;;;;1999.90;999.90;;;14.10;99.90;;;;;;6631302;89;20224;-77
2022/10/03 08:10:59;;;;;;;1999.90;999.90;;;14.40;99.90;;;;;;6633245;88;20248;-79
2022/10/03 08:21:10;;;;;;;1999.90;999.90;;;14.70;99.90;;;;;;6634943;88;20196;-79
2022/10/03 08:31:29;;;;;;;1999.90;999.90;;;14.60;99.90;;;;;;6633952;88;20217;-79
2022/10/03 08:42:16;;;;;;;1999.90;999.90;;;14.70;99.90;;;;;;6634592;88;20195;-79
2022/10/03 08:52:22;;;;;;;1999.90;999.90;;;14.50;99.90;;;;;;6637025;88;20222;-79
2022/10/03 09:02:57;;;;;;;1999.90;999.90;;;14.70;99.90;;;;;;6640132;88;20695;-79
2022/10/03 09:13:16;;;;;;;1999.90;999.90;;;15.20;99.90;;;;;;6636105;88;20690;-78
2022/10/03 09:23:37;;;;;;;1999.90;999.90;;;17.10;99.90;;;;;;6636030;89;20336;-79
2022/10/03 09:34:22;;;;;;;1999.90;999.90;;;18.10;99.90;;;;;;6637096;88;20673;-78
2022/10/03 09:44:46;;;;;;;1999.90;999.90;;;18.20;99.90;;;;;;6635407;88;20225;-78
2022/10/03 09:55:04;;;;;;;1999.90;999.90;;;18.80;99.90;;;;;;6635691;88;20504;-78
2022/10/03 10:05:14;;;;;;;1999.90;999.90;;;19.30;99.90;;;;;;6636636;88;20205;-78
2022/10/03 10:15:30;;;;;;;1999.90;999.90;;;19.50;99.90;;;;;;6628450;89;20741;-80
2022/10/03 10:25:52;;;;;;;1999.90;999.90;;;20.50;99.90;;;;;;6634518;88;20202;-79
2022/10/03 10:36:24;;;;;;;1999.90;999.90;;;21.20;99.90;;;;;;6636374;88;20726;-79
2022/10/03 10:46:52;;;;;;;1999.90;999.90;;;20.60;99.90;;;;;;6638245;89;20186;-78
2022/10/03 10:57:39;;;;;;;1999.90;999.90;;;20.60;99.90;;;;;;6633658;88;20662;-77
2022/10/03 11:08:24;;;;;;;1999.90;999.90;;;21.60;99.90;;;;;;6637947;88;20619;-78
2022/10/03 11:18:43;;;;;;;;;;;22.20;99.90;;;;;;6632352;88;20687;-78
2022/10/03 11:29:02;;;;;;;1999.90;999.90;;;22.40;99.90;;;;;;6642171;88;20162;-78
2022/10/03 11:39:14;;;;;;;1999.90;999.90;;;23.00;99.90;;;;;;6630622;88;20449;-77
2022/10/03 11:50:15;;;;;;;1999.90;999.90;;;20.80;99.90;;;;;;6632329;88;20200;-78
2022/10/03 12:00:19;;;;;;;1999.90;999.90;;;21.70;99.90;;;;;;6595736;89;20201;-78
2022/10/03 12:10:29;;;;;;;1999.90;999.90;;;21.30;99.90;;;;;;6632909;88;20225;-77
2022/10/03 12:21:03;;;;;;;1999.90;999.90;;;21.20;99.90;;;;;;6633450;88;20865;-79
2022/10/03 12:31:17;;;;;;;;;;;20.60;99.90;;;;;;6640592;88;20257;-78
2022/10/03 12:42:09;;;;;;;1999.90;999.90;;;19.90;99.90;;;;;;6632993;88;20519;-78
2022/10/03 12:52:26;;;;;;;1999.90;999.90;;;19.20;99.90;;;;;;6628581;88;20311;-78
2022/10/03 13:02:34;;;;;;;1999.90;999.90;;;20.00;99.90;;;;;;6629786;88;20190;-78
2022/10/03 13:12:51;;;;;;;1999.90;999.90;;;21.70;99.90;;;;;;6636702;88;20190;-80
2022/10/03 13:23:16;;;;;;;1999.90;999.90;;;23.50;99.90;;;;;;6645215;88;20211;-78
2022/10/03 13:33:22;;;;;;;1999.90;999.90;;;23.20;99.00;;;;;;6636137;88;20185;-77
2022/10/03 13:43:34;;;;;;;1999.90;999.90;;;21.60;99.90;;;;;;6645566;88;20641;-77
2022/10/03 13:53:53;;;;;;;1999.90;999.90;;;20.20;99.90;;;;;;6644449;88;20181;-78
2022/10/03 14:04:28;;;;;;;1999.90;999.90;;;20.00;99.90;;;;;;6630692;88;20229;-77
2022/10/03 14:14:36;;;;;;;;;;;20.90;99.90;;;;;;6654727;88;20177;-80
2022/10/03 14:25:02;;;;;;;1999.90;999.90;;;21.70;99.90;;;;;;6639924;88;20603;-78
2022/10/03 14:35:16;;;;;;;1999.90;999.90;;;21.70;99.90;;;;;;6638762;88;20270;-80
2022/10/03 14:45:22;;;;;;;1999.90;999.90;;;22.50;99.90;;;;;;6635849;89;20197;-80
2022/10/03 14:55:24;;;;;;;1999.90;999.90;;;22.40;99.90;;;;;;6687188;76;20329;-77
2022/10/03 15:05:34;;;;;;;1999.90;999.90;;;22.50;99.90;;;;;;6710742;88;20182;-75
2022/10/03 15:15:38;;;;;;;1999.90;999.90;;;22.10;99.90;;;;;;6703582;88;20186;-78
2022/10/03 15:25:41;;;;;;;1999.90;999.90;;;21.20;99.90;;;;;;6708503;88;20182;-76
2022/10/03 15:35:47;;;;;;;1999.90;999.90;;;20.60;99.90;;;;;;6713947;88;20201;-77
2022/10/03 15:45:47;;;;;;;1999.90;999.90;;;20.50;99.90;;;;;;6709952;88;20322;-77
2022/10/03 15:55:51;;;;;;;1999.90;999.90;;;19.40;99.90;;;;;;6682052;88;20701;-78
2022/10/03 16:06:15;;;;;;;1999.90;999.90;;;18.60;99.90;;;;;;6698216;88;20916;-77
2022/10/03 16:16:22;;;;;;;1999.90;999.90;;;17.90;99.90;;;;;;6687055;88;20203;-77
2022/10/03 16:26:32;;;;;;;1999.90;999.90;;;18.20;99.90;;;;;;6700342;88;20199;-82
2022/10/03 16:36:42;;;;;;;1999.90;999.90;;;18.10;99.90;;;;;;6695323;88;20548;-82
2022/10/03 16:46:44;;;;;;;1999.90;999.90;;;17.60;99.90;;;;;;6710896;88;20253;-78
2022/10/03 16:56:54;;;;;;;1999.90;999.90;;;17.50;99.90;;;;;;6698725;88;20653;-78
2022/10/03 17:06:58;;;;;;;1999.90;999.90;;;16.90;99.90;;;;;;6707114;88;20206;-78
2022/10/03 17:17:05;;;;;;;1999.90;999.90;;;16.20;99.90;;;;;;6718845;88;20252;-79
2022/10/03 17:27:19;;;;;;;1999.90;999.90;;;15.90;99.90;;;;;;6707599;88;20205;-78
2022/10/03 17:37:38;;;;;;;1999.90;999.90;;;15.40;99.90;;;;;;6708048;88;20182;-79
2022/10/03 17:47:57;;;;;;;1999.90;999.90;;;14.90;99.90;;;;;;6707856;88;20783;-76
2022/10/03 17:58:10;;;;;;;1999.90;999.90;;;14.90;99.90;;;;;;6711257;88;20759;-79
2022/10/03 18:08:18;;;;;;;1999.90;999.90;;;14.40;99.90;;;;;;6703710;88;20187;-78
2022/10/03 18:18:41;;;;;;;1999.90;999.90;;;14.30;99.90;;;;;;6704842;88;20200;-78
2022/10/03 18:29:10;;;;;;;1999.90;999.90;;;14.10;99.90;;;;;;6705045;88;20201;-78
2022/10/03 18:39:26;;;;;;;1999.90;999.90;;;13.80;99.90;;;;;;6704533;88;20183;-78
2022/10/03 18:49:32;;;;;;;1999.90;999.90;;;13.50;99.90;;;;;;6706119;88;20318;-78
2022/10/03 18:59:51;;;;;;;1999.90;999.90;;;13.50;99.90;;;;;;6702280;88;20251;-78
2022/10/03 19:10:20;;;;;;;1999.90;999.90;;;13.30;99.90;;;;;;6702099;88;20630;-77
2022/10/03 19:20:35;;;;;;;1999.90;999.90;;;12.90;99.90;;;;;;6695150;88;20209;-79
2022/10/03 19:30:38;;;;;;;1999.90;999.90;;;12.80;99.90;;;;;;6700324;88;20187;-77
2022/10/03 19:40:52;;;;;;;1999.90;999.90;;;12.50;99.90;;;;;;6712143;88;20212;-79
2022/10/03 19:50:52;;;;;;;1999.90;999.90;;;12.70;99.90;;;;;;6707397;88;20697;-80
2022/10/03 20:00:56;;;;;;;1999.90;999.90;;;12.60;99.90;;;;;;6707355;88;20245;-79
2022/10/03 20:11:23;;;;;;;1999.90;999.90;;;12.40;99.90;;;;;;6708622;88;20782;-79
2022/10/03 20:21:27;;;;;;;1999.90;999.90;;;12.40;99.90;;;;;;6704143;88;20182;-79
2022/10/03 20:31:29;;;;;;;1999.90;999.90;;;12.30;99.90;;;;;;6705994;88;20238;-79
2022/10/03 20:41:40;;;;;;;1999.90;999.90;;;12.30;99.90;;;;;;6703316;88;20218;-78
2022/10/03 21:01:47;;;;;;;1999.90;999.90;;;11.90;99.90;;;;;;6659752;89;20233;-79
2022/10/03 21:11:51;;;;;;;1999.90;999.90;;;11.90;99.90;;;;;;6650472;88;20188;-80
2022/10/03 21:21:54;;;;;;;1999.90;999.90;;;11.90;99.90;;;;;;6694181;88;20302;-79
2022/10/03 21:32:22;;;;;;;1999.90;999.90;;;11.60;99.90;;;;;;6655135;89;20265;-80
2022/10/03 21:42:44;;;;;;;1999.90;999.90;;;11.50;99.90;;;;;;6648451;89;20200;-79
2022/10/03 21:53:07;;;;;;;1999.90;999.90;;;11.20;99.90;;;;;;6636573;89;20184;-79
2022/10/03 22:03:42;;;;;;;1999.90;999.90;;;11.10;99.90;;;;;;6622043;89;20577;-80
2022/10/03 22:14:01;;;;;;;1999.90;999.90;;;11.00;99.90;;;;;;6637082;89;20223;-79
2022/10/03 22:24:12;;;;;;;1999.90;999.90;;;10.90;99.90;;;;;;6627954;89;20215;-80
2022/10/03 22:34:37;;;;;;;1999.90;999.90;;;10.60;99.90;;;;;;6626309;89;20231;-78
2022/10/03 22:44:43;;;;;;;1999.90;999.90;;;10.60;99.90;;;;;;6632192;89;20302;-80
2022/10/03 22:54:44;;;;;;;;;;;10.40;99.90;;;;;;6631941;89;20244;-79
2022/10/03 23:04:53;;;;;;;1999.90;999.90;;;10.30;99.90;;;;;;6647947;89;20095;-80
2022/10/03 23:14:55;;;;;;;1999.90;999.90;;;10.30;99.90;;;;;;6625316;89;20243;-79
2022/10/03 23:25:04;;;;;;;1999.90;999.90;;;10.30;99.90;;;;;;6631760;89;20208;-79
2022/10/03 23:35:29;;;;;;;1999.90;999.90;;;10.30;99.90;;;;;;6631811;89;20234;-79
2022/10/03 23:45:33;;;;;;;1999.90;999.90;;;10.00;99.90;;;;;;6633381;89;20267;-79
2022/10/03 23:55:38;;;;;;;1999.90;999.90;;;10.20;99.90;;;;;;6632954;89;20192;-79
